Key West International Airport Key West US
ICAO: KEYW
IATA: EYW
Category: Medium
Scheduled Services: Yes

Elevation: 3 ft
TransAlt. 18000 ft.

Airport Communications:
NAVY KEY WEST:124.45
ASOS:119.65
ATIS:119.675
CLNC DEL:121.9
CTAF:118.2
MIAMI RDO:122.2
GND:121.9
TWR:118.2
UNICOM:122.95

KEYW Zoom In..

If you have problems with the map follow the link
https://www.worldairports.se/pages/airport.php?
ICAO=KEYW

Runways:

(A) RW 09 length 4801 ft width 100 ft
---- / hdg 93

(B) RW 27 length 4801 ft width 100 ft
---- / hdg 273

Location; KEYW
Day. 23 / Time. 17.53 Zulu
* Altimeter: 30.02
* Temperature: 31° c. 87.8°f.
* Wind from: 100° Speed 09 kn.
Dewpoint: 23° c.
Visibility: 10 Statute Miles.
Clouds: Scattered 6000 ft.

KEYW 231753Z 10009KT 10SM SCT060 31/23 A3002 RMK AO2 SLP166 T03060233 10306 20272 58015


Wind From 100°
Speed 09 kn.

 
 
jpsmedia.com for Web Design worldairports.se 2018   terms of use